sensor_id;sensor_type;location;lat;lon;timestamp;temperature;humidity
8896;DHT22;4484;48.928;10.066;2022-09-21T00:01:25;4.80;99.90
8896;DHT22;4484;48.928;10.066;2022-09-21T00:04:00;4.80;99.90
8896;DHT22;4484;48.928;10.066;2022-09-21T00:06:30;4.80;99.90
8896;DHT22;4484;48.928;10.066;2022-09-21T00:08:59;4.80;99.90
8896;DHT22;4484;48.928;10.066;2022-09-21T00:11:29;4.80;99.90
8896;DHT22;4484;48.928;10.066;2022-09-21T00:13:58;4.70;99.90
8896;DHT22;4484;48.928;10.066;2022-09-21T00:16:28;4.70;99.90
8896;DHT22;4484;48.928;10.066;2022-09-21T00:18:57;4.70;99.90
8896;DHT22;4484;48.928;10.066;2022-09-21T00:21:24;4.60;99.90
8896;DHT22;4484;48.928;10.066;2022-09-21T00:27:10;4.60;99.90
8896;DHT22;4484;48.928;10.066;2022-09-21T00:29:36;4.50;99.90
8896;DHT22;4484;48.928;10.066;2022-09-21T00:32:03;4.50;99.90
8896;DHT22;4484;48.928;10.066;2022-09-21T00:34:30;4.50;99.90
8896;DHT22;4484;48.928;10.066;2022-09-21T00:36:57;4.50;99.90
8896;DHT22;4484;48.928;10.066;2022-09-21T00:39:24;4.40;99.90
8896;DHT22;4484;48.928;10.066;2022-09-21T00:41:52;4.40;99.90
8896;DHT22;4484;48.928;10.066;2022-09-21T00:44:32;4.40;99.90
8896;DHT22;4484;48.928;10.066;2022-09-21T00:47:22;4.30;99.90
8896;DHT22;4484;48.928;10.066;2022-09-21T00:49:54;4.30;99.90
8896;DHT22;4484;48.928;10.066;2022-09-21T00:52:23;4.30;99.90
8896;DHT22;4484;48.928;10.066;2022-09-21T00:54:56;4.30;99.90
8896;DHT22;4484;48.928;10.066;2022-09-21T00:57:26;4.30;99.90
8896;DHT22;4484;48.928;10.066;2022-09-21T00:59:59;4.30;99.90
8896;DHT22;4484;48.928;10.066;2022-09-21T01:02:27;4.30;99.90
8896;DHT22;4484;48.928;10.066;2022-09-21T01:04:54;4.20;99.90
8896;DHT22;4484;48.928;10.066;2022-09-21T01:07:25;4.20;99.90
8896;DHT22;4484;48.928;10.066;2022-09-21T01:10:00;4.20;99.90
8896;DHT22;4484;48.928;10.066;2022-09-21T01:17:54;4.20;99.90
8896;DHT22;4484;48.928;10.066;2022-09-21T01:20:33;4.20;99.90
8896;DHT22;4484;48.928;10.066;2022-09-21T01:31:13;4.10;99.90
8896;DHT22;4484;48.928;10.066;2022-09-21T01:33:47;4.10;99.90
8896;DHT22;4484;48.928;10.066;2022-09-21T01:36:20;4.10;99.90
8896;DHT22;4484;48.928;10.066;2022-09-21T01:38:54;4.00;99.90
8896;DHT22;4484;48.928;10.066;2022-09-21T01:41:23;4.00;99.90
8896;DHT22;4484;48.928;10.066;2022-09-21T01:44:05;4.00;99.90
8896;DHT22;4484;48.928;10.066;2022-09-21T01:46:37;4.00;99.90
8896;DHT22;4484;48.928;10.066;2022-09-21T01:49:10;3.90;99.90
8896;DHT22;4484;48.928;10.066;2022-09-21T01:51:41;3.90;99.90
8896;DHT22;4484;48.928;10.066;2022-09-21T01:54:19;3.80;99.90
8896;DHT22;4484;48.928;10.066;2022-09-21T01:56:54;3.80;99.90
8896;DHT22;4484;48.928;10.066;2022-09-21T01:59:51;3.80;99.90
8896;DHT22;4484;48.928;10.066;2022-09-21T02:02:44;3.80;99.90
8896;DHT22;4484;48.928;10.066;2022-09-21T02:05:12;3.80;99.90
8896;DHT22;4484;48.928;10.066;2022-09-21T02:07:42;3.70;99.90
8896;DHT22;4484;48.928;10.066;2022-09-21T02:10:21;3.70;99.90
8896;DHT22;4484;48.928;10.066;2022-09-21T02:12:53;3.70;99.90
8896;DHT22;4484;48.928;10.066;2022-09-21T02:15:23;3.60;99.90
8896;DHT22;4484;48.928;10.066;2022-09-21T02:18:06;3.70;99.90
8896;DHT22;4484;48.928;10.066;2022-09-21T02:20:43;3.60;99.90
8896;DHT22;4484;48.928;10.066;2022-09-21T02:23:22;3.60;99.90
8896;DHT22;4484;48.928;10.066;2022-09-21T02:26:08;3.60;99.90
8896;DHT22;4484;48.928;10.066;2022-09-21T02:28:54;3.50;99.90
8896;DHT22;4484;48.928;10.066;2022-09-21T02:34:26;3.50;99.90
8896;DHT22;4484;48.928;10.066;2022-09-21T02:36:59;3.60;99.90
8896;DHT22;4484;48.928;10.066;2022-09-21T02:42:19;3.60;99.90
8896;DHT22;4484;48.928;10.066;2022-09-21T02:44:56;3.60;99.90
8896;DHT22;4484;48.928;10.066;2022-09-21T02:47:59;3.50;99.90
8896;DHT22;4484;48.928;10.066;2022-09-21T02:50:30;3.50;99.90
8896;DHT22;4484;48.928;10.066;2022-09-21T02:53:00;3.40;99.90
8896;DHT22;4484;48.928;10.066;2022-09-21T02:55:30;3.40;99.90
8896;DHT22;4484;48.928;10.066;2022-09-21T02:58:00;3.30;99.90
8896;DHT22;4484;48.928;10.066;2022-09-21T03:00:29;3.30;99.90
8896;DHT22;4484;48.928;10.066;2022-09-21T03:02:56;3.20;99.90
8896;DHT22;4484;48.928;10.066;2022-09-21T03:05:24;3.20;99.90
8896;DHT22;4484;48.928;10.066;2022-09-21T03:07:55;3.20;99.90
8896;DHT22;4484;48.928;10.066;2022-09-21T03:10:22;3.20;99.90
8896;DHT22;4484;48.928;10.066;2022-09-21T03:12:49;3.20;99.90
8896;DHT22;4484;48.928;10.066;2022-09-21T03:15:16;3.10;99.90
8896;DHT22;4484;48.928;10.066;2022-09-21T03:17:43;3.10;99.90
8896;DHT22;4484;48.928;10.066;2022-09-21T03:20:10;3.10;99.90
8896;DHT22;4484;48.928;10.066;2022-09-21T03:22:38;3.10;99.90
8896;DHT22;4484;48.928;10.066;2022-09-21T03:25:05;3.00;99.90
8896;DHT22;4484;48.928;10.066;2022-09-21T03:27:33;3.00;99.90
8896;DHT22;4484;48.928;10.066;2022-09-21T03:30:00;3.00;99.90
8896;DHT22;4484;48.928;10.066;2022-09-21T03:32:28;3.00;99.90
8896;DHT22;4484;48.928;10.066;2022-09-21T03:34:56;3.00;99.90
8896;DHT22;4484;48.928;10.066;2022-09-21T03:37:23;3.00;99.90
8896;DHT22;4484;48.928;10.066;2022-09-21T03:39:50;3.00;99.90
8896;DHT22;4484;48.928;10.066;2022-09-21T03:42:18;2.90;99.90
8896;DHT22;4484;48.928;10.066;2022-09-21T03:44:45;2.90;99.90
8896;DHT22;4484;48.928;10.066;2022-09-21T03:47:12;2.90;99.90
8896;DHT22;4484;48.928;10.066;2022-09-21T03:49:38;2.90;99.90
8896;DHT22;4484;48.928;10.066;2022-09-21T03:52:05;3.00;99.90
8896;DHT22;4484;48.928;10.066;2022-09-21T03:54:32;2.90;99.90
8896;DHT22;4484;48.928;10.066;2022-09-21T03:56:59;3.00;99.90
8896;DHT22;4484;48.928;10.066;2022-09-21T03:59:26;3.00;99.90
8896;DHT22;4484;48.928;10.066;2022-09-21T04:01:52;3.00;99.90
8896;DHT22;4484;48.928;10.066;2022-09-21T04:04:19;3.00;99.90
8896;DHT22;4484;48.928;10.066;2022-09-21T04:06:47;3.00;99.90
8896;DHT22;4484;48.928;10.066;2022-09-21T04:09:13;3.00;99.90
8896;DHT22;4484;48.928;10.066;2022-09-21T04:11:40;3.00;99.90
8896;DHT22;4484;48.928;10.066;2022-09-21T04:14:07;3.00;99.90
8896;DHT22;4484;48.928;10.066;2022-09-21T04:16:34;3.00;99.90
8896;DHT22;4484;48.928;10.066;2022-09-21T04:19:00;3.00;99.90
8896;DHT22;4484;48.928;10.066;2022-09-21T04:21:27;3.00;99.90
8896;DHT22;4484;48.928;10.066;2022-09-21T04:23:55;3.00;99.90
8896;DHT22;4484;48.928;10.066;2022-09-21T04:26:25;3.10;99.90
8896;DHT22;4484;48.928;10.066;2022-09-21T04:28:53;3.00;99.90
8896;DHT22;4484;48.928;10.066;2022-09-21T04:31:22;3.00;99.90
8896;DHT22;4484;48.928;10.066;2022-09-21T04:33:54;3.00;99.90
8896;DHT22;4484;48.928;10.066;2022-09-21T04:36:23;3.00;99.90
8896;DHT22;4484;48.928;10.066;2022-09-21T04:38:51;3.00;99.90
8896;DHT22;4484;48.928;10.066;2022-09-21T04:41:19;3.00;99.90
8896;DHT22;4484;48.928;10.066;2022-09-21T04:43:47;2.90;99.90
8896;DHT22;4484;48.928;10.066;2022-09-21T04:46:16;3.00;99.90
8896;DHT22;4484;48.928;10.066;2022-09-21T04:48:44;3.00;99.90
8896;DHT22;4484;48.928;10.066;2022-09-21T04:51:12;3.00;99.90
8896;DHT22;4484;48.928;10.066;2022-09-21T04:53:41;2.90;99.90
8896;DHT22;4484;48.928;10.066;2022-09-21T04:56:09;2.90;99.90
8896;DHT22;4484;48.928;10.066;2022-09-21T04:58:38;2.90;99.90
8896;DHT22;4484;48.928;10.066;2022-09-21T05:01:05;2.90;99.90
8896;DHT22;4484;48.928;10.066;2022-09-21T05:03:33;3.00;99.90
8896;DHT22;4484;48.928;10.066;2022-09-21T05:06:00;2.90;99.90
8896;DHT22;4484;48.928;10.066;2022-09-21T05:08:27;3.00;99.90
8896;DHT22;4484;48.928;10.066;2022-09-21T05:11:14;3.00;99.90
8896;DHT22;4484;48.928;10.066;2022-09-21T05:13:42;3.00;99.90
8896;DHT22;4484;48.928;10.066;2022-09-21T05:16:09;3.00;99.90
8896;DHT22;4484;48.928;10.066;2022-09-21T05:18:35;3.00;99.90
8896;DHT22;4484;48.928;10.066;2022-09-21T05:21:03;2.90;99.90
8896;DHT22;4484;48.928;10.066;2022-09-21T05:23:31;2.90;99.90
8896;DHT22;4484;48.928;10.066;2022-09-21T05:25:58;2.90;99.90
8896;DHT22;4484;48.928;10.066;2022-09-21T05:28:25;2.80;99.90
8896;DHT22;4484;48.928;10.066;2022-09-21T05:40:10;2.90;99.90
8896;DHT22;4484;48.928;10.066;2022-09-21T05:42:38;2.90;99.90
8896;DHT22;4484;48.928;10.066;2022-09-21T05:45:05;3.00;99.90
8896;DHT22;4484;48.928;10.066;2022-09-21T05:48:10;3.00;99.90
8896;DHT22;4484;48.928;10.066;2022-09-21T05:56:02;3.20;99.90
8896;DHT22;4484;48.928;10.066;2022-09-21T06:01:32;3.20;99.90
8896;DHT22;4484;48.928;10.066;2022-09-21T06:04:02;3.30;99.90
8896;DHT22;4484;48.928;10.066;2022-09-21T06:06:29;3.40;99.90
8896;DHT22;4484;48.928;10.066;2022-09-21T06:08:56;3.40;99.90
8896;DHT22;4484;48.928;10.066;2022-09-21T06:11:23;3.50;99.90
8896;DHT22;4484;48.928;10.066;2022-09-21T06:13:50;3.60;99.90
8896;DHT22;4484;48.928;10.066;2022-09-21T06:16:16;3.60;99.90
8896;DHT22;4484;48.928;10.066;2022-09-21T06:18:43;3.70;99.90
8896;DHT22;4484;48.928;10.066;2022-09-21T06:21:10;3.80;99.90
8896;DHT22;4484;48.928;10.066;2022-09-21T06:23:37;3.90;99.90
8896;DHT22;4484;48.928;10.066;2022-09-21T06:26:04;4.00;99.90
8896;DHT22;4484;48.928;10.066;2022-09-21T06:28:31;4.10;99.90
8896;DHT22;4484;48.928;10.066;2022-09-21T06:30:58;4.20;99.90
8896;DHT22;4484;48.928;10.066;2022-09-21T06:33:25;4.30;99.90
8896;DHT22;4484;48.928;10.066;2022-09-21T06:35:53;4.40;99.90
8896;DHT22;4484;48.928;10.066;2022-09-21T06:38:21;4.60;99.90
8896;DHT22;4484;48.928;10.066;2022-09-21T06:40:49;4.80;99.90
8896;DHT22;4484;48.928;10.066;2022-09-21T06:43:16;5.00;99.90
8896;DHT22;4484;48.928;10.066;2022-09-21T06:45:58;5.30;99.90
8896;DHT22;4484;48.928;10.066;2022-09-21T06:48:26;5.60;99.90
8896;DHT22;4484;48.928;10.066;2022-09-21T06:51:04;5.90;99.90
8896;DHT22;4484;48.928;10.066;2022-09-21T06:53:33;6.40;99.90
8896;DHT22;4484;48.928;10.066;2022-09-21T06:58:29;7.10;99.90
8896;DHT22;4484;48.928;10.066;2022-09-21T07:00:56;7.50;99.90
8896;DHT22;4484;48.928;10.066;2022-09-21T07:03:23;8.00;99.90
8896;DHT22;4484;48.928;10.066;2022-09-21T07:05:50;8.50;99.90
8896;DHT22;4484;48.928;10.066;2022-09-21T07:08:17;9.10;99.90
8896;DHT22;4484;48.928;10.066;2022-09-21T07:11:04;9.60;99.90
8896;DHT22;4484;48.928;10.066;2022-09-21T07:13:31;10.20;99.90
8896;DHT22;4484;48.928;10.066;2022-09-21T07:16:03;10.80;99.90
8896;DHT22;4484;48.928;10.066;2022-09-21T07:18:31;11.20;99.90
8896;DHT22;4484;48.928;10.066;2022-09-21T07:21:09;11.60;99.90
8896;DHT22;4484;48.928;10.066;2022-09-21T07:23:37;11.90;99.90
8896;DHT22;4484;48.928;10.066;2022-09-21T07:26:09;12.00;99.90
8896;DHT22;4484;48.928;10.066;2022-09-21T07:28:36;12.00;99.90
8896;DHT22;4484;48.928;10.066;2022-09-21T07:31:21;11.90;99.90
8896;DHT22;4484;48.928;10.066;2022-09-21T07:33:48;12.20;99.90
8896;DHT22;4484;48.928;10.066;2022-09-21T07:36:15;12.40;99.90
8896;DHT22;4484;48.928;10.066;2022-09-21T07:38:43;12.70;99.90
8896;DHT22;4484;48.928;10.066;2022-09-21T07:41:11;13.20;99.90
8896;DHT22;4484;48.928;10.066;2022-09-21T07:43:39;13.60;99.90
8896;DHT22;4484;48.928;10.066;2022-09-21T07:46:07;13.90;99.90
8896;DHT22;4484;48.928;10.066;2022-09-21T07:48:35;14.20;99.90
8896;DHT22;4484;48.928;10.066;2022-09-21T07:51:10;14.50;99.90
8896;DHT22;4484;48.928;10.066;2022-09-21T07:53:40;14.80;99.90
8896;DHT22;4484;48.928;10.066;2022-09-21T07:56:09;15.20;99.90
8896;DHT22;4484;48.928;10.066;2022-09-21T07:58:37;15.60;99.90
8896;DHT22;4484;48.928;10.066;2022-09-21T08:01:24;16.00;99.90
8896;DHT22;4484;48.928;10.066;2022-09-21T08:03:52;16.60;99.90
8896;DHT22;4484;48.928;10.066;2022-09-21T08:06:20;17.10;99.90
8896;DHT22;4484;48.928;10.066;2022-09-21T08:08:48;17.10;99.90
8896;DHT22;4484;48.928;10.066;2022-09-21T08:11:22;17.10;99.90
8896;DHT22;4484;48.928;10.066;2022-09-21T08:13:57;17.30;99.90
8896;DHT22;4484;48.928;10.066;2022-09-21T08:16:25;17.40;99.90
8896;DHT22;4484;48.928;10.066;2022-09-21T08:18:52;17.50;99.90
8896;DHT22;4484;48.928;10.066;2022-09-21T08:21:19;17.80;99.90
8896;DHT22;4484;48.928;10.066;2022-09-21T08:23:47;18.00;99.90
8896;DHT22;4484;48.928;10.066;2022-09-21T08:26:17;18.30;99.90
8896;DHT22;4484;48.928;10.066;2022-09-21T08:28:51;18.30;99.90
8896;DHT22;4484;48.928;10.066;2022-09-21T08:31:19;17.90;99.90
8896;DHT22;4484;48.928;10.066;2022-09-21T08:33:47;17.90;99.90
8896;DHT22;4484;48.928;10.066;2022-09-21T08:36:16;17.90;99.90
8896;DHT22;4484;48.928;10.066;2022-09-21T08:38:43;18.00;99.90
8896;DHT22;4484;48.928;10.066;2022-09-21T08:41:18;18.20;99.90
8896;DHT22;4484;48.928;10.066;2022-09-21T08:43:52;18.30;99.90
8896;DHT22;4484;48.928;10.066;2022-09-21T08:46:27;18.60;99.90
8896;DHT22;4484;48.928;10.066;2022-09-21T08:49:16;18.80;99.90
8896;DHT22;4484;48.928;10.066;2022-09-21T08:51:54;18.70;99.90
8896;DHT22;4484;48.928;10.066;2022-09-21T08:54:28;18.90;99.90
8896;DHT22;4484;48.928;10.066;2022-09-21T08:56:56;19.00;99.90
8896;DHT22;4484;48.928;10.066;2022-09-21T08:59:33;19.20;99.90
8896;DHT22;4484;48.928;10.066;2022-09-21T09:10:33;19.70;99.90
8896;DHT22;4484;48.928;10.066;2022-09-21T09:13:28;19.60;97.40
8896;DHT22;4484;48.928;10.066;2022-09-21T09:21:15;19.40;98.70
8896;DHT22;4484;48.928;10.066;2022-09-21T09:24:09;19.60;99.90
8896;DHT22;4484;48.928;10.066;2022-09-21T09:27:08;19.80;98.50
8896;DHT22;4484;48.928;10.066;2022-09-21T09:32:17;19.70;97.70
8896;DHT22;4484;48.928;10.066;2022-09-21T09:34:53;19.40;94.80
8896;DHT22;4484;48.928;10.066;2022-09-21T09:37:30;18.40;94.30
8896;DHT22;4484;48.928;10.066;2022-09-21T09:40:00;17.60;94.80
8896;DHT22;4484;48.928;10.066;2022-09-21T09:42:33;17.30;96.70
8896;DHT22;4484;48.928;10.066;2022-09-21T09:48:25;17.70;96.50
8896;DHT22;4484;48.928;10.066;2022-09-21T09:50:57;18.40;95.80
8896;DHT22;4484;48.928;10.066;2022-09-21T09:53:25;18.40;96.70
8896;DHT22;4484;48.928;10.066;2022-09-21T09:55:55;18.60;96.10
8896;DHT22;4484;48.928;10.066;2022-09-21T10:01:02;19.60;96.70
8896;DHT22;4484;48.928;10.066;2022-09-21T10:03:29;19.70;92.70
8896;DHT22;4484;48.928;10.066;2022-09-21T10:05:56;19.70;91.30
8896;DHT22;4484;48.928;10.066;2022-09-21T10:10:55;19.60;91.80
8896;DHT22;4484;48.928;10.066;2022-09-21T10:13:31;19.60;92.30
8896;DHT22;4484;48.928;10.066;2022-09-21T10:16:13;19.50;90.90
8896;DHT22;4484;48.928;10.066;2022-09-21T10:18:56;19.50;92.10
8896;DHT22;4484;48.928;10.066;2022-09-21T10:21:47;19.40;91.70
8896;DHT22;4484;48.928;10.066;2022-09-21T10:24:21;19.70;93.30
8896;DHT22;4484;48.928;10.066;2022-09-21T10:26:52;20.40;92.70
8896;DHT22;4484;48.928;10.066;2022-09-21T10:34:24;21.20;89.20
8896;DHT22;4484;48.928;10.066;2022-09-21T10:36:55;20.90;88.60
8896;DHT22;4484;48.928;10.066;2022-09-21T10:39:31;20.90;86.50
8896;DHT22;4484;48.928;10.066;2022-09-21T10:42:03;21.00;86.00
8896;DHT22;4484;48.928;10.066;2022-09-21T10:44:36;20.60;83.10
8896;DHT22;4484;48.928;10.066;2022-09-21T10:49:59;20.20;92.40
8896;DHT22;4484;48.928;10.066;2022-09-21T10:52:40;20.70;90.60
8896;DHT22;4484;48.928;10.066;2022-09-21T10:55:18;21.40;91.30
8896;DHT22;4484;48.928;10.066;2022-09-21T10:57:46;21.70;81.80
8896;DHT22;4484;48.928;10.066;2022-09-21T11:02:49;20.70;77.40
8896;DHT22;4484;48.928;10.066;2022-09-21T11:05:27;20.50;80.80
8896;DHT22;4484;48.928;10.066;2022-09-21T11:08:03;20.50;84.40
8896;DHT22;4484;48.928;10.066;2022-09-21T11:13:32;21.00;80.90
8896;DHT22;4484;48.928;10.066;2022-09-21T11:16:10;21.20;81.00
8896;DHT22;4484;48.928;10.066;2022-09-21T11:32:43;21.80;75.30
8896;DHT22;4484;48.928;10.066;2022-09-21T11:35:20;22.00;75.70
8896;DHT22;4484;48.928;10.066;2022-09-21T11:38:11;21.90;76.90
8896;DHT22;4484;48.928;10.066;2022-09-21T11:41:16;22.20;76.90
8896;DHT22;4484;48.928;10.066;2022-09-21T11:49:42;21.90;74.40
8896;DHT22;4484;48.928;10.066;2022-09-21T12:19:22;22.70;65.60
8896;DHT22;4484;48.928;10.066;2022-09-21T12:22:41;22.00;65.60
8896;DHT22;4484;48.928;10.066;2022-09-21T12:24:53;21.60;68.30
8896;DHT22;4484;48.928;10.066;2022-09-21T12:27:38;21.60;68.00
8896;DHT22;4484;48.928;10.066;2022-09-21T12:30:18;21.70;67.10
8896;DHT22;4484;48.928;10.066;2022-09-21T12:32:54;21.60;68.10
8896;DHT22;4484;48.928;10.066;2022-09-21T12:35:42;21.40;63.80
8896;DHT22;4484;48.928;10.066;2022-09-21T12:49:00;21.70;66.00
8896;DHT22;4484;48.928;10.066;2022-09-21T12:51:38;21.70;69.50
8896;DHT22;4484;48.928;10.066;2022-09-21T12:54:25;22.10;71.00
8896;DHT22;4484;48.928;10.066;2022-09-21T13:00:25;22.80;66.60
8896;DHT22;4484;48.928;10.066;2022-09-21T13:08:29;23.00;74.10
8896;DHT22;4484;48.928;10.066;2022-09-21T13:11:01;22.40;72.80
8896;DHT22;4484;48.928;10.066;2022-09-21T13:13:37;22.00;75.10
8896;DHT22;4484;48.928;10.066;2022-09-21T13:16:06;21.40;73.30
8896;DHT22;4484;48.928;10.066;2022-09-21T13:18:39;20.80;75.60
8896;DHT22;4484;48.928;10.066;2022-09-21T13:21:17;20.20;75.50
8896;DHT22;4484;48.928;10.066;2022-09-21T13:24:03;19.60;79.50
8896;DHT22;4484;48.928;10.066;2022-09-21T13:29:03;19.70;85.60
8896;DHT22;4484;48.928;10.066;2022-09-21T13:34:25;20.60;73.50
8896;DHT22;4484;48.928;10.066;2022-09-21T13:45:00;21.00;72.40
8896;DHT22;4484;48.928;10.066;2022-09-21T13:47:35;21.00;70.30
8896;DHT22;4484;48.928;10.066;2022-09-21T13:53:00;21.00;70.10
8896;DHT22;4484;48.928;10.066;2022-09-21T13:55:36;20.60;65.70
8896;DHT22;4484;48.928;10.066;2022-09-21T13:58:26;20.00;67.20
8896;DHT22;4484;48.928;10.066;2022-09-21T14:01:00;19.50;70.20
8896;DHT22;4484;48.928;10.066;2022-09-21T14:03:37;19.30;70.10
8896;DHT22;4484;48.928;10.066;2022-09-21T14:06:13;19.20;70.00
8896;DHT22;4484;48.928;10.066;2022-09-21T14:08:50;19.20;72.50
8896;DHT22;4484;48.928;10.066;2022-09-21T14:14:07;19.40;74.90
8896;DHT22;4484;48.928;10.066;2022-09-21T14:24:42;18.90;69.50
8896;DHT22;4484;48.928;10.066;2022-09-21T14:30:17;18.10;73.20
8896;DHT22;4484;48.928;10.066;2022-09-21T14:35:23;18.00;74.10
8896;DHT22;4484;48.928;10.066;2022-09-21T14:38:02;18.20;73.80
8896;DHT22;4484;48.928;10.066;2022-09-21T14:40:33;18.10;71.20
8896;DHT22;4484;48.928;10.066;2022-09-21T14:43:11;18.10;72.50
8896;DHT22;4484;48.928;10.066;2022-09-21T14:48:53;18.10;73.80
8896;DHT22;4484;48.928;10.066;2022-09-21T15:02:22;17.80;70.80
8896;DHT22;4484;48.928;10.066;2022-09-21T15:16:44;16.90;72.20
8896;DHT22;4484;48.928;10.066;2022-09-21T15:19:28;16.70;76.40
8896;DHT22;4484;48.928;10.066;2022-09-21T15:22:10;16.50;76.20
8896;DHT22;4484;48.928;10.066;2022-09-21T15:24:55;16.40;78.30
8896;DHT22;4484;48.928;10.066;2022-09-21T15:27:27;16.30;78.80
8896;DHT22;4484;48.928;10.066;2022-09-21T15:30:00;16.20;77.30
8896;DHT22;4484;48.928;10.066;2022-09-21T15:35:19;16.10;77.30
8896;DHT22;4484;48.928;10.066;2022-09-21T15:37:47;16.00;76.10
8896;DHT22;4484;48.928;10.066;2022-09-21T15:40:19;15.80;77.20
8896;DHT22;4484;48.928;10.066;2022-09-21T15:43:16;15.70;77.80
8896;DHT22;4484;48.928;10.066;2022-09-21T15:48:17;15.60;81.70
8896;DHT22;4484;48.928;10.066;2022-09-21T15:50:54;15.60;80.50
8896;DHT22;4484;48.928;10.066;2022-09-21T15:53:34;15.50;78.70
8896;DHT22;4484;48.928;10.066;2022-09-21T15:56:02;15.50;83.10
8896;DHT22;4484;48.928;10.066;2022-09-21T15:58:33;15.50;85.00
8896;DHT22;4484;48.928;10.066;2022-09-21T16:01:10;15.40;85.00
8896;DHT22;4484;48.928;10.066;2022-09-21T16:03:38;15.40;84.20
8896;DHT22;4484;48.928;10.066;2022-09-21T16:06:25;15.40;85.50
8896;DHT22;4484;48.928;10.066;2022-09-21T16:08:52;15.30;85.20
8896;DHT22;4484;48.928;10.066;2022-09-21T16:14:11;15.20;87.30
8896;DHT22;4484;48.928;10.066;2022-09-21T16:20:02;15.10;88.30
8896;DHT22;4484;48.928;10.066;2022-09-21T16:22:43;15.10;87.50
8896;DHT22;4484;48.928;10.066;2022-09-21T16:25:29;14.90;87.80
8896;DHT22;4484;48.928;10.066;2022-09-21T16:28:05;14.80;84.20
8896;DHT22;4484;48.928;10.066;2022-09-21T16:36:00;14.50;85.60
8896;DHT22;4484;48.928;10.066;2022-09-21T16:38:30;14.40;87.30
8896;DHT22;4484;48.928;10.066;2022-09-21T16:41:00;14.30;88.90
8896;DHT22;4484;48.928;10.066;2022-09-21T16:43:27;14.20;89.80
8896;DHT22;4484;48.928;10.066;2022-09-21T16:45:55;14.10;88.50
8896;DHT22;4484;48.928;10.066;2022-09-21T16:48:22;14.00;87.00
8896;DHT22;4484;48.928;10.066;2022-09-21T16:50:49;13.90;86.20
8896;DHT22;4484;48.928;10.066;2022-09-21T16:53:19;13.80;86.40
8896;DHT22;4484;48.928;10.066;2022-09-21T16:55:48;13.50;86.90
8896;DHT22;4484;48.928;10.066;2022-09-21T16:58:16;13.40;87.80
8896;DHT22;4484;48.928;10.066;2022-09-21T17:00:51;13.30;89.20
8896;DHT22;4484;48.928;10.066;2022-09-21T17:03:22;13.20;90.20
8896;DHT22;4484;48.928;10.066;2022-09-21T17:05:53;13.10;90.10
8896;DHT22;4484;48.928;10.066;2022-09-21T17:08:23;13.00;90.10
8896;DHT22;4484;48.928;10.066;2022-09-21T17:10:50;12.90;90.40
8896;DHT22;4484;48.928;10.066;2022-09-21T17:13:17;12.80;90.70
8896;DHT22;4484;48.928;10.066;2022-09-21T17:15:46;12.70;91.10
8896;DHT22;4484;48.928;10.066;2022-09-21T17:18:14;12.60;91.20
8896;DHT22;4484;48.928;10.066;2022-09-21T17:20:43;12.60;92.30
8896;DHT22;4484;48.928;10.066;2022-09-21T17:23:11;12.50;92.80
8896;DHT22;4484;48.928;10.066;2022-09-21T17:25:38;12.40;93.20
8896;DHT22;4484;48.928;10.066;2022-09-21T17:28:19;12.30;93.70
8896;DHT22;4484;48.928;10.066;2022-09-21T17:30:52;12.20;94.30
8896;DHT22;4484;48.928;10.066;2022-09-21T17:33:20;12.00;94.70
8896;DHT22;4484;48.928;10.066;2022-09-21T17:35:47;11.90;95.20
8896;DHT22;4484;48.928;10.066;2022-09-21T17:38:16;11.80;95.70
8896;DHT22;4484;48.928;10.066;2022-09-21T17:40:44;11.70;96.30
8896;DHT22;4484;48.928;10.066;2022-09-21T17:46:13;11.50;97.80
8896;DHT22;4484;48.928;10.066;2022-09-21T17:48:42;11.30;98.40
8896;DHT22;4484;48.928;10.066;2022-09-21T17:51:09;11.20;98.90
8896;DHT22;4484;48.928;10.066;2022-09-21T17:53:36;11.10;99.60
8896;DHT22;4484;48.928;10.066;2022-09-21T18:01:07;10.80;99.90
8896;DHT22;4484;48.928;10.066;2022-09-21T18:03:38;10.70;99.90
8896;DHT22;4484;48.928;10.066;2022-09-21T18:06:10;10.60;99.90
8896;DHT22;4484;48.928;10.066;2022-09-21T18:08:39;10.50;99.90
8896;DHT22;4484;48.928;10.066;2022-09-21T18:11:15;10.40;99.90
8896;DHT22;4484;48.928;10.066;2022-09-21T18:16:30;10.30;99.90
8896;DHT22;4484;48.928;10.066;2022-09-21T18:21:39;10.10;99.90
8896;DHT22;4484;48.928;10.066;2022-09-21T18:26:41;9.90;99.90
8896;DHT22;4484;48.928;10.066;2022-09-21T18:29:22;9.90;99.90
8896;DHT22;4484;48.928;10.066;2022-09-21T18:32:08;9.70;99.90
8896;DHT22;4484;48.928;10.066;2022-09-21T18:37:11;9.50;99.90
8896;DHT22;4484;48.928;10.066;2022-09-21T18:40:02;9.50;99.90
8896;DHT22;4484;48.928;10.066;2022-09-21T18:43:37;9.40;99.90
8896;DHT22;4484;48.928;10.066;2022-09-21T18:45:57;9.30;99.90
8896;DHT22;4484;48.928;10.066;2022-09-21T18:48:50;9.20;99.90
8896;DHT22;4484;48.928;10.066;2022-09-21T18:53:59;9.00;99.90
8896;DHT22;4484;48.928;10.066;2022-09-21T18:56:32;8.90;99.90
8896;DHT22;4484;48.928;10.066;2022-09-21T18:59:00;8.90;99.90
8896;DHT22;4484;48.928;10.066;2022-09-21T19:01:28;8.80;99.90
8896;DHT22;4484;48.928;10.066;2022-09-21T19:03:59;8.70;99.90
8896;DHT22;4484;48.928;10.066;2022-09-21T19:07:06;8.60;99.90
8896;DHT22;4484;48.928;10.066;2022-09-21T19:12:49;8.50;99.90
8896;DHT22;4484;48.928;10.066;2022-09-21T19:15:24;8.40;99.90
8896;DHT22;4484;48.928;10.066;2022-09-21T19:18:27;8.30;99.90
8896;DHT22;4484;48.928;10.066;2022-09-21T19:21:03;8.20;99.90
8896;DHT22;4484;48.928;10.066;2022-09-21T19:31:33;7.90;99.90
8896;DHT22;4484;48.928;10.066;2022-09-21T19:34:18;7.80;99.90
8896;DHT22;4484;48.928;10.066;2022-09-21T19:36:45;7.70;99.90
8896;DHT22;4484;48.928;10.066;2022-09-21T19:39:13;7.70;99.90
8896;DHT22;4484;48.928;10.066;2022-09-21T19:49:52;7.40;99.90
8896;DHT22;4484;48.928;10.066;2022-09-21T19:52:34;7.30;99.90
8896;DHT22;4484;48.928;10.066;2022-09-21T19:55:15;7.30;99.90
8896;DHT22;4484;48.928;10.066;2022-09-21T19:58:02;7.20;99.90
8896;DHT22;4484;48.928;10.066;2022-09-21T20:00:51;7.20;99.90
8896;DHT22;4484;48.928;10.066;2022-09-21T20:03:32;7.10;99.90
8896;DHT22;4484;48.928;10.066;2022-09-21T20:06:15;7.00;99.90
8896;DHT22;4484;48.928;10.066;2022-09-21T20:08:50;7.00;99.90
8896;DHT22;4484;48.928;10.066;2022-09-21T20:16:54;6.90;99.90
8896;DHT22;4484;48.928;10.066;2022-09-21T20:21:58;6.80;99.90
8896;DHT22;4484;48.928;10.066;2022-09-21T20:24:49;6.70;99.90
8896;DHT22;4484;48.928;10.066;2022-09-21T20:29:53;6.60;99.90
8896;DHT22;4484;48.928;10.066;2022-09-21T20:32:21;6.60;99.90
8896;DHT22;4484;48.928;10.066;2022-09-21T20:34:48;6.60;99.90
8896;DHT22;4484;48.928;10.066;2022-09-21T20:37:15;6.60;99.90
8896;DHT22;4484;48.928;10.066;2022-09-21T20:39:46;6.50;99.90
8896;DHT22;4484;48.928;10.066;2022-09-21T20:42:23;6.50;99.90
8896;DHT22;4484;48.928;10.066;2022-09-21T20:44:50;6.40;99.90
8896;DHT22;4484;48.928;10.066;2022-09-21T20:47:18;6.40;99.90
8896;DHT22;4484;48.928;10.066;2022-09-21T20:49:46;6.40;99.90
8896;DHT22;4484;48.928;10.066;2022-09-21T20:52:14;6.40;99.90
8896;DHT22;4484;48.928;10.066;2022-09-21T20:54:42;6.40;99.90
8896;DHT22;4484;48.928;10.066;2022-09-21T20:57:15;6.30;99.90
8896;DHT22;4484;48.928;10.066;2022-09-21T20:59:43;6.30;99.90
8896;DHT22;4484;48.928;10.066;2022-09-21T21:02:11;6.20;99.90
8896;DHT22;4484;48.928;10.066;2022-09-21T21:04:38;6.20;99.90